This is the latest recevied weather packets stored in our database for station/object W6DSP. If no packets are shown the sender has not sent any weather packets the latest 10 day(s).
| Time | Temp. | Humidity | Pressure | Rain* | Wind** | Luminosity | Snow |
|---|---|---|---|---|---|---|---|
| 1788150808 | 72° F | 91% | 763 mmHg | 0 in | - | - | - |
| 1788149333 | 72° F | 91% | 763 mmHg | 0 in | - | - | - |
| 1788147201 | 72° F | 90% | 762.9 mmHg | 0 in | - | - | - |
| 1788145715 | 73° F | 90% | 762.7 mmHg | 0 in | - | - | - |
| 1788144966 | 73° F | 89% | 762.7 mmHg | 0 in | - | - | - |
| 1788144223 | 73° F | 90% | 762.6 mmHg | 0 in | - | - | - |
| 1788143493 | 73° F | 90% | 762.7 mmHg | 0 in | - | - | - |
| 1788132600 | 76° F | 88% | 762.8 mmHg | 0 in | - | - | - |
| 1788131113 | 77° F | 84% | 763 mmHg | 0 in | - | - | - |
| 1788130411 | 78° F | 85% | 763 mmHg | 0 in | - | - | - |
| 1788128993 | 78° F | 84% | 763.1 mmHg | 0 in | - | - | - |
| 1788128304 | 78° F | 82% | 763.3 mmHg | 0 in | - | - | - |
| 1788126856 | 80° F | 77% | 763.3 mmHg | 0 in | - | - | - |
| 1788126125 | 81° F | 72% | 763.2 mmHg | 0 in | - | - | - |
| 1788125419 | 80° F | 76% | 763.1 mmHg | 0 in | - | - | - |
| 1788123984 | 81° F | 75% | 762.9 mmHg | 0 in | - | - | - |
| 1788123257 | 80° F | 73% | 763 mmHg | 0 in | - | - | - |
| 1788121782 | 83° F | 67% | 762.7 mmHg | 0 in | - | - | - |
| 1788120335 | 83° F | 67% | 763 mmHg | 0 in | - | - | - |
| 1788119597 | 82° F | 69% | 763.3 mmHg | 0 in | - | - | - |
| 1788116724 | 81° F | 74% | 763 mmHg | 0 in | - | - | - |
| 1788115293 | 80° F | 75% | 763 mmHg | 0 in | - | - | - |
| 1788110969 | 74° F | 86% | 764.2 mmHg | 0 in | - | - | - |
| 1788109524 | 72° F | 87% | 763.9 mmHg | 0 in | - | - | - |
| 1788105902 | 72° F | 87% | 765.6 mmHg | 0 in | - | - | - |
* Rain latest hour (hover to see other rain measurements)
** Current wind speed in m/s (hover to see current wind gust speed)